createdAt,value
2022-12-23T00:01:32.121Z,17.6
2022-12-23T00:03:32.337Z,17.7
2022-12-23T00:05:37.417Z,17.7
2022-12-23T00:07:32.183Z,17.7
2022-12-23T00:09:32.122Z,17.7
2022-12-23T00:11:32.103Z,17.8
2022-12-23T00:13:32.128Z,17.9
2022-12-23T00:15:32.084Z,17.8
2022-12-23T00:17:32.067Z,17.8
2022-12-23T00:19:32.072Z,17.8
2022-12-23T00:21:32.059Z,17.8
2022-12-23T00:23:32.062Z,18
2022-12-23T00:25:32.052Z,18
2022-12-23T00:27:37.264Z,18
2022-12-23T00:29:32.061Z,18
2022-12-23T00:31:32.265Z,18
2022-12-23T00:33:32.074Z,18.1
2022-12-23T00:35:32.099Z,18
2022-12-23T00:37:32.062Z,18.1
2022-12-23T00:39:32.106Z,18
2022-12-23T00:41:32.060Z,17.8
2022-12-23T00:43:32.052Z,18
2022-12-23T00:45:32.083Z,17.9
2022-12-23T00:47:32.049Z,17.9
2022-12-23T00:49:32.077Z,17.9
2022-12-23T00:51:32.053Z,17.8
2022-12-23T00:53:32.082Z,17.9
2022-12-23T00:55:32.043Z,17.9
2022-12-23T00:57:32.091Z,17.9
2022-12-23T00:59:32.080Z,17.8
2022-12-23T01:01:32.113Z,17.7
2022-12-23T01:03:33.523Z,17.8
2022-12-23T01:05:32.045Z,17.8
2022-12-23T01:07:32.021Z,17.8
2022-12-23T01:09:32.065Z,17.8
2022-12-23T01:11:32.144Z,17.8
2022-12-23T01:13:32.038Z,17.9
2022-12-23T01:15:32.044Z,17.8
2022-12-23T01:17:32.020Z,17.9
2022-12-23T01:19:32.027Z,17.9
2022-12-23T01:21:32.008Z,17.9
2022-12-23T01:23:32.012Z,18
2022-12-23T01:25:31.989Z,18
2022-12-23T01:27:32.085Z,17.9
2022-12-23T01:29:31.987Z,17.9
2022-12-23T01:31:32.058Z,17.9
2022-12-23T01:33:32.002Z,18
2022-12-23T01:35:32.017Z,18
2022-12-23T01:37:31.998Z,18.1
2022-12-23T01:39:31.992Z,18.1
2022-12-23T01:41:31.973Z,18.1
2022-12-23T01:43:32.033Z,18.1
2022-12-23T01:45:32.084Z,18.2
2022-12-23T01:47:32.012Z,18.3
2022-12-23T01:49:32.122Z,18.2
2022-12-23T01:51:31.957Z,18.3
2022-12-23T01:53:31.962Z,18.4
2022-12-23T01:55:31.960Z,18.4
2022-12-23T01:57:31.970Z,18.4
2022-12-23T01:59:31.964Z,18.4
2022-12-23T02:01:32.058Z,18.4
2022-12-23T02:03:34.490Z,18.5
2022-12-23T02:05:31.999Z,18.5
2022-12-23T02:07:31.986Z,18.5
2022-12-23T02:09:31.984Z,18.5
2022-12-23T02:11:31.951Z,18.6
2022-12-23T02:13:31.976Z,18.7
2022-12-23T02:15:31.956Z,18.6
2022-12-23T02:17:31.960Z,18.6
2022-12-23T02:19:31.920Z,18.6
2022-12-23T02:21:31.932Z,18.6
2022-12-23T02:23:31.933Z,18.7
2022-12-23T02:25:31.941Z,18.7
2022-12-23T02:27:31.986Z,18.7
2022-12-23T02:29:31.913Z,18.7
2022-12-23T02:31:31.985Z,18.6
2022-12-23T02:33:31.952Z,18.7
2022-12-23T02:35:31.928Z,18.7
2022-12-23T02:37:31.906Z,18.7
2022-12-23T02:39:31.932Z,18.8
2022-12-23T02:41:31.920Z,18.7
2022-12-23T02:43:32.065Z,18.7
2022-12-23T02:45:31.914Z,18.8
2022-12-23T02:47:31.933Z,18.7
2022-12-23T02:49:31.948Z,18.7
2022-12-23T02:51:31.929Z,18.7
2022-12-23T02:53:31.954Z,18.8
2022-12-23T02:55:31.899Z,18.8
2022-12-23T02:57:31.914Z,18.9
2022-12-23T02:59:31.907Z,18.9
2022-12-23T03:01:32.000Z,18.9
2022-12-23T03:03:31.983Z,19
2022-12-23T03:05:31.921Z,18.9
2022-12-23T03:07:31.889Z,18.8
2022-12-23T03:09:31.997Z,18.8
2022-12-23T03:11:31.866Z,18.9
2022-12-23T03:13:31.891Z,19.1
2022-12-23T03:15:32.001Z,19
2022-12-23T03:17:31.875Z,18.9
2022-12-23T03:19:31.917Z,18.8
2022-12-23T03:21:31.868Z,18.9
2022-12-23T03:23:31.891Z,19
2022-12-23T03:25:31.887Z,18.9
2022-12-23T03:27:31.857Z,18.9
2022-12-23T03:29:31.882Z,18.8
2022-12-23T03:31:31.863Z,18.8
2022-12-23T03:33:31.877Z,18.9
2022-12-23T03:35:31.939Z,18.9
2022-12-23T03:37:31.869Z,18.8
2022-12-23T03:39:31.907Z,18.9
2022-12-23T03:41:31.839Z,18.8
2022-12-23T03:43:31.872Z,18.9
2022-12-23T03:45:40.224Z,18.8
2022-12-23T03:47:31.835Z,18.7
2022-12-23T03:49:31.857Z,18.7
2022-12-23T03:51:31.837Z,18.8
2022-12-23T03:53:31.891Z,18.7
2022-12-23T03:55:32.917Z,18.7
2022-12-23T03:57:31.806Z,18.7
2022-12-23T03:59:31.835Z,18.5
2022-12-23T04:01:31.956Z,18.5
2022-12-23T04:03:31.841Z,18.2
2022-12-23T04:05:31.800Z,18.1
2022-12-23T04:07:31.824Z,18.1
2022-12-23T04:09:31.861Z,18
2022-12-23T04:11:31.822Z,17.8
2022-12-23T04:13:31.829Z,17.8
2022-12-23T04:15:31.820Z,17.6
2022-12-23T04:17:31.820Z,17.4
2022-12-23T04:19:31.874Z,17.3
2022-12-23T04:21:31.799Z,17.2
2022-12-23T04:23:31.820Z,17.1
2022-12-23T04:25:31.812Z,17
2022-12-23T04:27:31.785Z,17
2022-12-23T04:29:31.789Z,16.8
2022-12-23T04:31:31.867Z,16.7
2022-12-23T04:33:31.841Z,16.5
2022-12-23T04:35:31.871Z,16.4
2022-12-23T04:37:31.774Z,16.2
2022-12-23T04:39:31.774Z,16.1
2022-12-23T04:41:31.830Z,16
2022-12-23T04:43:31.760Z,15.9
2022-12-23T04:45:31.791Z,15.7
2022-12-23T04:47:31.767Z,15.5
2022-12-23T04:49:31.768Z,15.6
2022-12-23T04:51:31.768Z,15.5
2022-12-23T04:53:31.767Z,15.3
2022-12-23T04:55:31.761Z,15.2
2022-12-23T04:57:31.853Z,15.2
2022-12-23T04:59:31.775Z,15.1
2022-12-23T05:01:31.899Z,15.1
2022-12-23T05:03:31.806Z,15.1
2022-12-23T05:05:31.734Z,14.9
2022-12-23T05:07:31.725Z,14.9
2022-12-23T05:09:31.740Z,14.7
2022-12-23T05:11:34.061Z,14.8
2022-12-23T05:13:31.736Z,14.7
2022-12-23T05:15:31.783Z,14.6
2022-12-23T05:17:31.730Z,14.7
2022-12-23T05:19:31.749Z,14.7
2022-12-23T05:21:31.715Z,14.6
2022-12-23T05:23:31.709Z,14.5
2022-12-23T05:25:31.752Z,14.4
2022-12-23T05:27:31.714Z,14.5
2022-12-23T05:29:31.748Z,14.4
2022-12-23T05:31:31.742Z,14.3
2022-12-23T05:33:31.784Z,14.4
2022-12-23T05:35:31.729Z,14.1
2022-12-23T05:37:31.741Z,14.1
2022-12-23T05:39:33.013Z,14
2022-12-23T05:41:31.704Z,14
2022-12-23T05:43:31.701Z,14
2022-12-23T05:45:31.791Z,14
2022-12-23T05:47:31.705Z,13.8
2022-12-23T05:49:31.697Z,13.8
2022-12-23T05:51:31.695Z,13.7
2022-12-23T05:53:31.710Z,13.7
2022-12-23T05:55:31.688Z,13.8
2022-12-23T05:57:31.675Z,13.6
2022-12-23T05:59:31.930Z,13.5
2022-12-23T06:01:31.713Z,13.6
2022-12-23T06:03:31.817Z,13.5
2022-12-23T06:05:31.681Z,13.5
2022-12-23T06:07:31.698Z,13.5
2022-12-23T06:09:31.703Z,13.4
2022-12-23T06:11:31.672Z,13.4
2022-12-23T06:13:31.613Z,13.3
2022-12-23T06:15:31.678Z,13.2
2022-12-23T06:17:31.733Z,13.2
2022-12-23T06:19:33.091Z,13.1
2022-12-23T06:21:31.650Z,13
2022-12-23T06:23:31.601Z,13.1
2022-12-23T06:25:31.643Z,13.1
2022-12-23T06:27:31.670Z,13.1
2022-12-23T06:29:31.714Z,13
2022-12-23T06:31:31.781Z,13
2022-12-23T06:33:31.626Z,13.1
2022-12-23T06:35:31.629Z,13.1
2022-12-23T06:37:31.649Z,13.1
2022-12-23T06:39:31.634Z,13.1
2022-12-23T06:41:31.622Z,13.1
2022-12-23T06:43:31.673Z,13.1
2022-12-23T06:45:31.771Z,12.9
2022-12-23T06:47:31.617Z,12.8
2022-12-23T06:49:31.710Z,12.8
2022-12-23T06:51:31.612Z,12.8
2022-12-23T06:53:31.600Z,12.9
2022-12-23T06:55:31.609Z,12.8
2022-12-23T06:57:31.589Z,12.8
2022-12-23T06:59:31.671Z,12.8
2022-12-23T07:01:31.648Z,12.8
2022-12-23T07:03:31.695Z,12.8
2022-12-23T07:05:36.881Z,12.8
2022-12-23T07:07:31.619Z,12.7
2022-12-23T07:09:31.639Z,12.7
2022-12-23T07:11:31.592Z,12.7
2022-12-23T07:13:31.597Z,12.8
2022-12-23T07:15:31.574Z,12.7
2022-12-23T07:17:31.603Z,12.7
2022-12-23T07:19:31.591Z,12.7
2022-12-23T07:21:31.596Z,12.8
2022-12-23T07:23:31.586Z,12.8
2022-12-23T07:25:31.553Z,12.8
2022-12-23T07:27:31.548Z,12.7
2022-12-23T07:29:31.580Z,12.6
2022-12-23T07:31:31.669Z,12.6
2022-12-23T07:33:31.568Z,12.6
2022-12-23T07:35:31.568Z,12.5
2022-12-23T07:37:31.602Z,12.6
2022-12-23T07:39:31.585Z,12.7
2022-12-23T07:41:31.539Z,12.8
2022-12-23T07:43:31.557Z,12.7
2022-12-23T07:45:31.593Z,12.6
2022-12-23T07:47:31.560Z,12.7
2022-12-23T07:49:31.555Z,12.7
2022-12-23T07:51:31.561Z,12.5
2022-12-23T07:53:31.556Z,12.6
2022-12-23T07:55:31.568Z,12.6
2022-12-23T07:57:31.582Z,12.5
2022-12-23T07:59:31.547Z,12.6
2022-12-23T08:01:31.620Z,12.5
2022-12-23T08:03:31.630Z,12.5
2022-12-23T08:05:31.600Z,12.6
2022-12-23T08:07:31.520Z,12.5
2022-12-23T08:09:31.573Z,12.5
2022-12-23T08:11:34.087Z,12.5
2022-12-23T08:13:31.670Z,12.5
2022-12-23T08:15:31.521Z,12.4
2022-12-23T08:17:31.497Z,12.4
2022-12-23T08:19:31.512Z,12.3
2022-12-23T08:21:31.496Z,12.4
2022-12-23T08:23:31.542Z,12.4
2022-12-23T08:25:31.517Z,12.3
2022-12-23T08:27:31.579Z,12.2
2022-12-23T08:29:36.143Z,12.3
2022-12-23T08:31:31.539Z,12.1
2022-12-23T08:33:31.502Z,12.3
2022-12-23T08:35:31.495Z,12.2
2022-12-23T08:37:31.527Z,12.1
2022-12-23T08:39:31.498Z,12.1
2022-12-23T08:41:32.632Z,12.1
2022-12-23T08:43:35.690Z,12.2
2022-12-23T08:45:31.452Z,12.2
2022-12-23T08:47:31.465Z,12.2
2022-12-23T08:49:31.434Z,12.2
2022-12-23T08:51:31.479Z,12.3
2022-12-23T08:53:31.462Z,12.3
2022-12-23T08:55:31.453Z,12.3
2022-12-23T08:57:31.406Z,12.2
2022-12-23T08:59:31.422Z,12.3
2022-12-23T09:01:31.588Z,12.3
2022-12-23T09:03:31.561Z,12.2
2022-12-23T09:05:31.442Z,12.3
2022-12-23T09:07:31.435Z,12.2
2022-12-23T09:09:31.507Z,12.3
2022-12-23T09:11:31.425Z,12.3
2022-12-23T09:13:35.049Z,12.3
2022-12-23T09:15:31.699Z,12.3
2022-12-23T09:17:31.448Z,12.3
2022-12-23T09:19:31.441Z,12.3
2022-12-23T09:21:31.421Z,12.2
2022-12-23T09:23:31.388Z,12.3
2022-12-23T09:25:31.466Z,12.3
2022-12-23T09:27:31.470Z,12.2
2022-12-23T09:29:31.365Z,12.2
2022-12-23T09:31:36.484Z,12.2
2022-12-23T09:33:31.415Z,12.3
2022-12-23T09:35:31.385Z,12.3
2022-12-23T09:37:31.351Z,12.2
2022-12-23T09:39:31.354Z,12.2
2022-12-23T09:41:31.383Z,12.2
2022-12-23T09:43:31.390Z,12.3
2022-12-23T09:45:35.536Z,12.2
2022-12-23T09:47:32.653Z,12.2
2022-12-23T09:49:31.409Z,12.2
2022-12-23T09:51:31.450Z,12.2
2022-12-23T09:53:31.346Z,12.2
2022-12-23T09:55:31.376Z,12.3
2022-12-23T09:57:31.389Z,12.3
2022-12-23T09:59:31.401Z,12.3
2022-12-23T10:01:31.418Z,12.3
2022-12-23T10:03:31.582Z,12.3
2022-12-23T10:05:31.332Z,12.3
2022-12-23T10:07:31.341Z,12.2
2022-12-23T10:09:31.358Z,12.2
2022-12-23T10:11:31.330Z,12.2
2022-12-23T10:13:31.389Z,12.3
2022-12-23T10:15:31.315Z,12.3
2022-12-23T10:17:32.420Z,12.2
2022-12-23T10:19:31.384Z,12.3
2022-12-23T10:21:35.830Z,12.3
2022-12-23T10:23:31.351Z,12.3
2022-12-23T10:25:31.310Z,12.3
2022-12-23T10:27:31.314Z,12.3
2022-12-23T10:29:31.274Z,12.3
2022-12-23T10:31:40.129Z,12.3
2022-12-23T10:33:31.442Z,12.3
2022-12-23T10:35:31.319Z,12.4
2022-12-23T10:37:31.301Z,12.4
2022-12-23T10:39:31.326Z,12.4
2022-12-23T10:41:31.294Z,12.5
2022-12-23T10:43:31.317Z,12.5
2022-12-23T10:45:31.330Z,12.4
2022-12-23T10:47:31.317Z,12.4
2022-12-23T10:49:31.268Z,12.5
2022-12-23T10:51:31.353Z,12.6
2022-12-23T10:53:31.435Z,12.6
2022-12-23T10:55:33.645Z,12.6
2022-12-23T10:57:31.319Z,12.5
2022-12-23T10:59:31.319Z,12.5
2022-12-23T11:01:31.541Z,12.5
2022-12-23T11:03:31.573Z,12.5
2022-12-23T11:05:31.280Z,12.6
2022-12-23T11:07:45.294Z,12.6
2022-12-23T11:09:31.329Z,12.5
2022-12-23T11:11:32.775Z,12.6
2022-12-23T11:13:31.286Z,12.6
2022-12-23T11:15:31.269Z,12.7
2022-12-23T11:17:31.358Z,12.7
2022-12-23T11:19:31.444Z,12.7
2022-12-23T11:21:31.265Z,12.8
2022-12-23T11:23:31.312Z,12.8
2022-12-23T11:25:31.295Z,12.8
2022-12-23T11:27:31.303Z,12.7
2022-12-23T11:29:31.252Z,12.7
2022-12-23T11:31:31.326Z,12.8
2022-12-23T11:33:31.302Z,12.8
2022-12-23T11:35:31.355Z,12.9
2022-12-23T11:37:31.259Z,12.9
2022-12-23T11:39:31.239Z,12.8
2022-12-23T11:41:31.258Z,12.9
2022-12-23T11:43:31.256Z,13
2022-12-23T11:45:31.325Z,13
2022-12-23T11:47:31.252Z,13
2022-12-23T11:49:31.232Z,13.1
2022-12-23T11:51:31.230Z,13.1
2022-12-23T11:53:31.289Z,13.2
2022-12-23T11:55:31.262Z,13.2
2022-12-23T11:57:33.750Z,13.3
2022-12-23T11:59:31.228Z,13.3
2022-12-23T12:01:31.231Z,13.3
2022-12-23T12:03:31.302Z,13.3
2022-12-23T12:05:31.257Z,13.4
2022-12-23T12:07:31.216Z,13.4
2022-12-23T12:09:31.271Z,13.3
2022-12-23T12:11:31.296Z,13.3
2022-12-23T12:13:31.217Z,13.5
2022-12-23T12:15:31.226Z,13.5
2022-12-23T12:17:31.259Z,13.4
2022-12-23T12:19:31.241Z,13.5
2022-12-23T12:21:31.352Z,13.5
2022-12-23T12:23:32.471Z,13.6
2022-12-23T12:25:33.911Z,13.7
2022-12-23T12:27:31.192Z,13.7
2022-12-23T12:29:31.208Z,13.7
2022-12-23T12:31:31.183Z,13.7
2022-12-23T12:33:31.175Z,13.8
2022-12-23T12:35:31.178Z,13.8
2022-12-23T12:37:31.190Z,13.8
2022-12-23T12:39:32.444Z,13.8
2022-12-23T12:41:31.155Z,13.8
2022-12-23T12:43:31.182Z,13.7
2022-12-23T12:45:31.222Z,13.9
2022-12-23T12:47:53.165Z,13.9
2022-12-23T12:49:31.199Z,13.9
2022-12-23T12:51:31.187Z,13.9
2022-12-23T12:53:32.283Z,13.9
2022-12-23T12:55:31.193Z,13.9
2022-12-23T12:57:31.200Z,13.9
2022-12-23T12:59:32.570Z,13.9
2022-12-23T13:01:31.156Z,13.9
2022-12-23T13:03:31.144Z,13.9
2022-12-23T13:05:31.139Z,13.9
2022-12-23T13:07:31.132Z,14
2022-12-23T13:09:31.231Z,14
2022-12-23T13:11:31.147Z,14.2
2022-12-23T13:13:31.173Z,14.1
2022-12-23T13:15:31.201Z,14.2
2022-12-23T13:17:38.889Z,14.2
2022-12-23T13:19:31.136Z,14.1
2022-12-23T13:21:32.398Z,14.1
2022-12-23T13:23:43.202Z,14.1
2022-12-23T13:25:35.286Z,14.1
2022-12-23T13:27:31.253Z,14.3
2022-12-23T13:29:36.759Z,14.2
2022-12-23T13:31:31.352Z,14.2
2022-12-23T13:33:32.381Z,14.3
2022-12-23T13:35:07.409Z,14.3
2022-12-23T13:35:31.245Z,14.3
2022-12-23T13:37:31.233Z,14.3
2022-12-23T13:39:32.479Z,14.3
2022-12-23T13:41:31.149Z,14.4
2022-12-23T13:43:31.147Z,14.4
2022-12-23T13:45:32.452Z,14.5
2022-12-23T13:47:31.267Z,14.5
2022-12-23T13:49:31.191Z,14.5
2022-12-23T13:51:32.330Z,14.6
2022-12-23T13:53:31.130Z,14.6
2022-12-23T13:55:35.295Z,14.7
2022-12-23T13:57:32.235Z,14.7
2022-12-23T13:59:31.188Z,14.6
2022-12-23T14:01:31.193Z,14.6
2022-12-23T14:03:31.191Z,14.7
2022-12-23T14:05:31.187Z,14.7
2022-12-23T14:07:31.101Z,14.7
2022-12-23T14:09:35.487Z,14.7
2022-12-23T14:11:31.113Z,14.7
2022-12-23T14:13:31.103Z,14.7
2022-12-23T14:15:31.082Z,14.8
2022-12-23T14:17:32.211Z,14.9
2022-12-23T14:19:31.089Z,15
2022-12-23T14:21:31.054Z,15
2022-12-23T14:23:31.060Z,15.2
2022-12-23T14:25:31.106Z,15.2
2022-12-23T14:27:32.312Z,15.2
2022-12-23T14:29:32.350Z,15.1
2022-12-23T14:31:32.443Z,15.3
2022-12-23T14:33:35.561Z,15.1
2022-12-23T14:35:33.356Z,15.2
2022-12-23T14:37:31.065Z,15.1
2022-12-23T14:39:31.074Z,15
2022-12-23T14:41:31.031Z,15
2022-12-23T14:43:31.132Z,15
2022-12-23T14:45:32.237Z,15
2022-12-23T14:47:35.374Z,15.2
2022-12-23T14:49:39.378Z,15.1
2022-12-23T14:51:31.207Z,15
2022-12-23T14:53:31.083Z,15.1
2022-12-23T14:55:31.821Z,15.1
2022-12-23T14:57:32.567Z,15.1
2022-12-23T14:59:32.365Z,15
2022-12-23T15:01:32.322Z,15.2
2022-12-23T15:03:32.205Z,14.6
2022-12-23T15:05:32.112Z,13.8
2022-12-23T15:07:31.063Z,13.5
2022-12-23T15:09:31.039Z,13.3
2022-12-23T15:11:31.072Z,13
2022-12-23T15:12:49.738Z,13
2022-12-23T15:13:31.172Z,12.9
2022-12-23T15:15:31.013Z,12.9
2022-12-23T15:17:32.476Z,12.7
2022-12-23T15:19:30.982Z,12.7
2022-12-23T15:21:30.953Z,12.6
2022-12-23T15:23:31.005Z,12.6
2022-12-23T15:25:31.088Z,12.6
2022-12-23T15:27:32.454Z,12.5
2022-12-23T15:29:30.999Z,11.7
2022-12-23T15:31:31.139Z,12.2
2022-12-23T15:34:01.982Z,11.7
2022-12-23T15:35:31.016Z,11.1
2022-12-23T15:37:31.039Z,11.3
2022-12-23T15:39:31.019Z,11.2
2022-12-23T15:41:31.090Z,11.1
2022-12-23T15:43:30.965Z,10.8
2022-12-23T15:45:30.994Z,10.8
2022-12-23T15:47:31.210Z,10.6
2022-12-23T15:49:31.018Z,10.3
2022-12-23T15:51:58.140Z,10.6
2022-12-23T15:53:30.920Z,10.1
2022-12-23T15:55:30.957Z,10.2
2022-12-23T15:57:44.984Z,9.9
2022-12-23T15:59:53.680Z,9.8
2022-12-23T16:01:41.839Z,10.1
2022-12-23T16:03:30.968Z,10.3
2022-12-23T16:05:35.302Z,10.5
2022-12-23T16:07:31.055Z,10.1
2022-12-23T16:09:31.045Z,9.6
2022-12-23T16:11:31.011Z,9.7
2022-12-23T16:13:31.029Z,9.8
2022-12-23T16:15:35.269Z,9.8
2022-12-23T16:17:30.898Z,9.6
2022-12-23T16:19:30.912Z,9.6
2022-12-23T16:21:32.176Z,9.7
2022-12-23T16:23:30.959Z,9.6
2022-12-23T16:25:32.236Z,9.7
2022-12-23T16:27:30.911Z,9.8
2022-12-23T16:29:32.123Z,9.5
2022-12-23T16:31:31.036Z,9.3
2022-12-23T16:33:30.928Z,9.2
2022-12-23T16:35:32.387Z,9.1
2022-12-23T16:37:30.934Z,8.9
2022-12-23T16:39:32.107Z,8.7
2022-12-23T16:41:31.049Z,8.6
2022-12-23T16:43:47.616Z,8.5
2022-12-23T16:45:32.121Z,8.6
2022-12-23T16:47:30.951Z,8.5
2022-12-23T16:49:33.618Z,8.5
2022-12-23T16:51:30.904Z,8.4
2022-12-23T16:53:30.918Z,8
2022-12-23T16:55:32.343Z,8.2
2022-12-23T16:57:30.945Z,8.3
2022-12-23T16:59:30.910Z,8.1
2022-12-23T17:01:32.454Z,8.1
2022-12-23T17:03:30.852Z,8.1
2022-12-23T17:05:30.968Z,8
2022-12-23T17:07:30.979Z,7.8
2022-12-23T17:09:32.094Z,8.1
2022-12-23T17:11:30.895Z,8.3
2022-12-23T17:13:32.067Z,8.1
2022-12-23T17:15:30.858Z,8
2022-12-23T17:17:30.998Z,8.2
2022-12-23T17:19:32.212Z,8.2
2022-12-23T17:21:35.229Z,8.5
2022-12-23T17:23:30.936Z,8.7
2022-12-23T17:25:31.998Z,8.4
2022-12-23T17:27:30.903Z,8.4
2022-12-23T17:29:35.345Z,8.5
2022-12-23T17:31:30.878Z,8.6
2022-12-23T17:33:30.772Z,8.1
2022-12-23T17:35:32.329Z,8.2
2022-12-23T17:37:30.854Z,7.8
2022-12-23T17:39:30.830Z,7.6
2022-12-23T17:41:30.859Z,7.5
2022-12-23T17:43:32.292Z,7.7
2022-12-23T17:45:30.875Z,7.7
2022-12-23T17:47:30.797Z,7.3
2022-12-23T17:49:30.841Z,7.3
2022-12-23T17:51:30.844Z,7.1
2022-12-23T17:53:30.792Z,7.2
2022-12-23T17:55:30.835Z,7.5
2022-12-23T17:57:30.851Z,7.5
2022-12-23T17:59:30.776Z,7.5
2022-12-23T18:01:30.932Z,7.3
2022-12-23T18:03:30.850Z,7.4
2022-12-23T18:05:30.898Z,7.1
2022-12-23T18:07:30.843Z,6.9
2022-12-23T18:09:30.757Z,7.2
2022-12-23T18:11:32.124Z,7
2022-12-23T18:13:30.806Z,7.2
2022-12-23T18:15:31.101Z,7.3
2022-12-23T18:17:30.780Z,7.6
2022-12-23T18:19:35.287Z,7.4
2022-12-23T18:21:33.711Z,7.6
2022-12-23T18:23:30.951Z,7.4
2022-12-23T18:25:31.935Z,7.6
2022-12-23T18:27:30.753Z,7.3
2022-12-23T18:29:31.869Z,7.2
2022-12-23T18:31:30.989Z,7.4
2022-12-23T18:33:30.764Z,7.6
2022-12-23T18:35:32.115Z,7.5
2022-12-23T18:37:30.762Z,7
2022-12-23T18:39:30.762Z,7
2022-12-23T18:41:30.846Z,7.2
2022-12-23T18:43:30.821Z,6.8
2022-12-23T18:45:30.788Z,6.5
2022-12-23T18:47:30.748Z,6.3
2022-12-23T18:49:30.751Z,5.7
2022-12-23T18:51:30.709Z,6
2022-12-23T18:53:30.723Z,6.1
2022-12-23T18:55:30.701Z,6.3
2022-12-23T18:57:30.723Z,6.4
2022-12-23T18:59:30.757Z,6.3
2022-12-23T19:01:32.099Z,6.2
2022-12-23T19:03:33.212Z,5.9
2022-12-23T19:05:30.725Z,6.2
2022-12-23T19:07:30.691Z,6.7
2022-12-23T19:09:30.761Z,6.4
2022-12-23T19:11:33.239Z,6.6
2022-12-23T19:13:31.844Z,6.2
2022-12-23T19:15:30.706Z,6.6
2022-12-23T19:17:31.952Z,6.9
2022-12-23T19:19:33.234Z,6.8
2022-12-23T19:21:30.746Z,6.2
2022-12-23T19:23:30.737Z,5.6
2022-12-23T19:25:30.699Z,5.7
2022-12-23T19:27:33.235Z,5.8
2022-12-23T19:29:30.736Z,6
2022-12-23T19:31:30.739Z,6.3
2022-12-23T19:33:34.972Z,6.1
2022-12-23T19:35:30.710Z,6.7
2022-12-23T19:37:30.737Z,6.4
2022-12-23T19:39:30.680Z,6.5
2022-12-23T19:41:30.644Z,6.7
2022-12-23T19:43:30.680Z,6
2022-12-23T19:45:30.670Z,5.9
2022-12-23T19:47:30.612Z,6.3
2022-12-23T19:49:30.607Z,5.7
2022-12-23T19:51:30.637Z,5.8
2022-12-23T19:53:30.795Z,5.5
2022-12-23T19:55:33.322Z,5.4
2022-12-23T19:57:35.177Z,5.3
2022-12-23T19:59:30.700Z,5.1
2022-12-23T20:01:30.761Z,5.7
2022-12-23T20:03:30.747Z,5.6
2022-12-23T20:05:30.718Z,5.9
2022-12-23T20:07:30.613Z,5.7
2022-12-23T20:09:32.099Z,6
2022-12-23T20:11:30.965Z,5.7
2022-12-23T20:13:30.592Z,5.6
2022-12-23T20:15:30.616Z,5.8
2022-12-23T20:17:30.597Z,5.6
2022-12-23T20:19:30.578Z,6.1
2022-12-23T20:21:30.738Z,5.9
2022-12-23T20:23:32.619Z,6
2022-12-23T20:25:30.605Z,5.5
2022-12-23T20:27:30.574Z,5.3
2022-12-23T20:29:30.591Z,5.6
2022-12-23T20:31:30.684Z,5.3
2022-12-23T20:33:30.541Z,5.4
2022-12-23T20:35:30.575Z,5.8
2022-12-23T20:37:30.502Z,5.7
2022-12-23T20:39:30.545Z,5.4
2022-12-23T20:41:30.537Z,5.5
2022-12-23T20:43:31.906Z,5.7
2022-12-23T20:45:30.520Z,5.7
2022-12-23T20:47:30.559Z,5.8
2022-12-23T20:49:30.490Z,5.6
2022-12-23T20:51:30.567Z,5.1
2022-12-23T20:53:30.502Z,5.1
2022-12-23T20:55:30.527Z,4.9
2022-12-23T20:57:30.705Z,4.4
2022-12-23T20:59:30.571Z,4.2
2022-12-23T21:01:33.096Z,4.3
2022-12-23T21:03:30.696Z,4.4
2022-12-23T21:05:30.563Z,4.1
2022-12-23T21:07:30.515Z,4.1
2022-12-23T21:09:30.538Z,4.3
2022-12-23T21:11:30.530Z,3.8
2022-12-23T21:13:30.586Z,3.9
2022-12-23T21:15:30.500Z,4.2
2022-12-23T21:17:30.511Z,4.2
2022-12-23T21:19:30.550Z,3.7
2022-12-23T21:21:30.519Z,3.8
2022-12-23T21:23:30.490Z,3.7
2022-12-23T21:25:30.520Z,3.8
2022-12-23T21:27:30.511Z,3.8
2022-12-23T21:29:31.924Z,3.6
2022-12-23T21:31:30.532Z,3.1
2022-12-23T21:33:30.597Z,2.7
2022-12-23T21:35:31.663Z,2.7
2022-12-23T21:37:30.490Z,2.7
2022-12-23T21:39:30.530Z,2.8
2022-12-23T21:41:30.495Z,2.4
2022-12-23T21:43:30.463Z,2.5
2022-12-23T21:45:30.479Z,2.8
2022-12-23T21:47:30.466Z,2.2
2022-12-23T21:49:30.460Z,1.9
2022-12-23T21:51:38.790Z,1.6
2022-12-23T21:53:30.471Z,1.1
2022-12-23T21:55:30.448Z,1.2
2022-12-23T21:57:30.456Z,1.2
2022-12-23T21:59:34.878Z,1.2
2022-12-23T22:01:30.467Z,1.1
2022-12-23T22:03:30.461Z,1.1
2022-12-23T22:05:30.476Z,0.7
2022-12-23T22:07:30.544Z,1
2022-12-23T22:09:30.477Z,0.8
2022-12-23T22:11:30.453Z,0.7
2022-12-23T22:13:30.421Z,0.3
2022-12-23T22:15:30.448Z,0.4
2022-12-23T22:17:30.479Z,0.8
2022-12-23T22:19:30.434Z,0.6
2022-12-23T22:21:30.434Z,0.4
2022-12-23T22:23:30.447Z,0.5
2022-12-23T22:25:30.448Z,1
2022-12-23T22:27:30.412Z,1
2022-12-23T22:29:30.459Z,0.8
2022-12-23T22:31:30.446Z,1.1
2022-12-23T22:33:30.385Z,0.9
2022-12-23T22:35:30.433Z,0.7
2022-12-23T22:37:30.401Z,0.9
2022-12-23T22:39:31.611Z,0.8
2022-12-23T22:41:30.582Z,0.7
2022-12-23T22:43:30.409Z,0.3
2022-12-23T22:45:30.437Z,0.2
2022-12-23T22:47:30.401Z,0.4
2022-12-23T22:49:30.393Z,0.5
2022-12-23T22:51:30.437Z,0.3
2022-12-23T22:53:30.370Z,-0.2
2022-12-23T22:55:30.587Z,0.5
2022-12-23T22:57:30.382Z,0.9
2022-12-23T22:59:30.359Z,1
2022-12-23T23:01:30.460Z,0.6
2022-12-23T23:03:30.351Z,1
2022-12-23T23:05:30.395Z,0.6
2022-12-23T23:07:30.425Z,0.2
2022-12-23T23:09:31.820Z,0.4
2022-12-23T23:11:31.630Z,0.5
2022-12-23T23:13:30.373Z,0.2
2022-12-23T23:15:30.383Z,0.2
2022-12-23T23:17:30.342Z,0.5
2022-12-23T23:19:30.340Z,0.3
2022-12-23T23:21:30.926Z,0.1
2022-12-23T23:23:30.492Z,-0.2
2022-12-23T23:25:30.385Z,0.1
2022-12-23T23:27:30.330Z,0
2022-12-23T23:29:30.323Z,-0.1
2022-12-23T23:31:43.504Z,-0.3
2022-12-23T23:33:31.463Z,-0.1
2022-12-23T23:35:30.345Z,0.4
2022-12-23T23:37:30.329Z,-0.7
2022-12-23T23:39:30.373Z,-0.1
2022-12-23T23:41:30.320Z,0
2022-12-23T23:43:30.366Z,-0.2
2022-12-23T23:45:30.448Z,-0.2
2022-12-23T23:47:30.324Z,-0.7
2022-12-23T23:49:30.357Z,-1
2022-12-23T23:51:30.349Z,-1
2022-12-23T23:53:30.331Z,-0.6
2022-12-23T23:55:30.294Z,-0.4
2022-12-23T23:57:30.268Z,-0.5
2022-12-23T23:59:30.280Z,-0.7
